Time;durP1;ratioP1;P1;durP2;ratioP2;P2;SDS_P1;SDS_P2;PMS_P1;PMS_P2;Temp;Humidity;BMP_temperature;BMP_pressure;BME280_temperature;BME280_humidity;BME280_pressure;Samples;Min_cycle;Max_cycle;Signal;HPM_P1;HPM_P2
2021/04/19 00:02:15;;;;;;;22.87;11.57;;;;;;;4.07;100.00;101467.13;4992963;28;20041;-81
2021/04/19 00:04:42;;;;;;;15.93;10.00;;;;;;;3.87;100.00;101458.03;4994121;28;20054;-81
2021/04/19 00:07:09;;;;;;;25.50;13.23;;;;;;;4.15;100.00;101459.41;4962389;28;20104;-81
2021/04/19 00:09:38;;;;;;;16.70;10.10;;;;;;;4.01;100.00;101453.03;4998428;28;20569;-81
2021/04/19 00:12:05;;;;;;;22.00;13.13;;;;;;;4.16;100.00;101458.56;4994023;28;20403;-81
2021/04/19 00:14:31;;;;;;;26.93;12.77;;;;;;;4.15;100.00;101456.81;5011966;28;20049;-81
2021/04/19 00:16:58;;;;;;;26.40;14.70;;;;;;;4.27;100.00;101456.13;4985622;28;20097;-81
2021/04/19 00:19:24;;;;;;;28.70;16.20;;;;;;;4.33;100.00;101454.50;4988894;28;20595;-81
2021/04/19 00:21:50;;;;;;;21.97;11.20;;;;;;;4.35;100.00;101452.78;4977734;28;20100;-82
2021/04/19 00:24:16;;;;;;;33.13;19.23;;;;;;;4.42;100.00;101454.66;4987459;28;20045;-81
2021/04/19 00:26:42;;;;;;;23.70;14.43;;;;;;;4.37;100.00;101447.59;4979809;28;20046;-81
2021/04/19 00:29:09;;;;;;;31.67;18.00;;;;;;;4.39;100.00;101459.84;4966933;28;20038;-81
2021/04/19 00:31:35;;;;;;;36.53;21.80;;;;;;;4.63;100.00;101448.06;4993241;28;20069;-82
2021/04/19 00:34:02;;;;;;;38.57;21.17;;;;;;;4.70;100.00;101448.16;4983471;28;20042;-81
2021/04/19 00:36:29;;;;;;;38.03;21.13;;;;;;;4.71;100.00;101447.31;4999576;28;20108;-81
2021/04/19 00:38:56;;;;;;;28.97;17.43;;;;;;;4.67;100.00;101437.63;4993464;28;20049;-81
2021/04/19 00:41:22;;;;;;;25.77;16.23;;;;;;;4.64;100.00;101444.56;4962558;28;20471;-81
2021/04/19 00:43:49;;;;;;;27.93;17.37;;;;;;;4.61;100.00;101436.66;4982239;28;20046;-80
2021/04/19 00:46:15;;;;;;;34.53;21.23;;;;;;;4.66;100.00;101435.00;4981494;28;20034;-81
2021/04/19 00:48:42;;;;;;;32.53;18.63;;;;;;;4.65;100.00;101434.13;4992990;28;20078;-81
2021/04/19 00:51:09;;;;;;;28.07;17.03;;;;;;;4.61;100.00;101440.16;4978704;28;20152;-81
2021/04/19 00:53:36;;;;;;;29.00;17.17;;;;;;;4.70;100.00;101437.69;4979225;28;20072;-82
2021/04/19 00:56:03;;;;;;;26.63;15.90;;;;;;;4.68;100.00;101434.16;4993382;28;20042;-82
2021/04/19 00:58:32;;;;;;;23.63;16.37;;;;;;;4.62;100.00;101433.16;4975465;28;20518;-82
2021/04/19 01:01:01;;;;;;;25.53;14.77;;;;;;;4.62;100.00;101435.78;4977932;28;20042;-82
2021/04/19 01:03:27;;;;;;;24.93;16.13;;;;;;;4.72;100.00;101443.84;4989776;28;20104;-81
2021/04/19 01:05:54;;;;;;;27.03;17.30;;;;;;;4.94;100.00;101446.78;4994586;28;20053;-82
2021/04/19 01:08:20;;;;;;;27.23;15.60;;;;;;;4.98;100.00;101459.06;4991311;28;21577;-81
2021/04/19 01:10:47;;;;;;;25.57;15.50;;;;;;;4.73;100.00;101448.22;4964390;28;20046;-80
2021/04/19 01:13:13;;;;;;;35.50;19.73;;;;;;;4.99;100.00;101461.72;4995608;28;20462;-80
2021/04/19 01:15:39;;;;;;;32.07;20.33;;;;;;;4.91;100.00;101454.59;4999128;28;20514;-81
2021/04/19 01:18:07;;;;;;;28.90;17.87;;;;;;;4.77;100.00;101454.38;4997922;28;20047;-81
2021/04/19 01:20:47;;;;;;;28.73;17.07;;;;;;;4.75;100.00;101453.47;4966956;28;20120;-81
2021/04/19 01:23:15;;;;;;;36.73;21.33;;;;;;;4.89;100.00;101458.94;4979567;28;20061;-81
2021/04/19 01:25:41;;;;;;;32.23;20.43;;;;;;;4.82;100.00;101447.47;5049290;23;20081;-82
2021/04/19 01:28:08;;;;;;;80.07;25.90;;;;;;;4.74;100.00;101455.22;4984714;28;20568;-83
2021/04/19 01:30:37;;;;;;;30.90;19.90;;;;;;;4.77;100.00;101459.59;4994902;28;20058;-83
2021/04/19 01:33:05;;;;;;;30.40;22.50;;;;;;;4.86;100.00;101462.34;4991683;28;20073;-83
2021/04/19 01:35:31;;;;;;;32.43;21.53;;;;;;;5.11;100.00;101450.50;4995056;28;20046;-83
2021/04/19 01:37:58;;;;;;;32.83;21.40;;;;;;;5.00;100.00;101446.88;4995109;28;20042;-83
2021/04/19 01:40:24;;;;;;;31.57;18.90;;;;;;;4.89;100.00;101443.22;5005019;28;20449;-82
2021/04/19 01:42:50;;;;;;;34.13;21.70;;;;;;;4.88;100.00;101434.50;4978893;28;20726;-83
2021/04/19 01:45:17;;;;;;;32.10;19.70;;;;;;;4.89;100.00;101437.97;4987878;28;20041;-82
2021/04/19 01:47:44;;;;;;;32.00;20.30;;;;;;;4.87;100.00;101434.44;4987622;28;20111;-82
2021/04/19 01:50:22;;;;;;;31.50;18.47;;;;;;;4.86;100.00;101427.44;4998789;28;20100;-83
2021/04/19 01:52:49;;;;;;;30.40;18.67;;;;;;;4.87;100.00;101434.44;4963997;28;20038;-82
2021/04/19 01:55:18;;;;;;;30.63;19.13;;;;;;;4.84;100.00;101437.91;4977388;28;20590;-82
2021/04/19 01:57:48;;;;;;;30.97;19.63;;;;;;;4.91;100.00;101431.91;4990826;28;20097;-82
2021/04/19 02:00:14;;;;;;;29.63;18.07;;;;;;;4.82;100.00;101431.78;4967960;28;20042;-83
2021/04/19 02:02:48;;;;;;;29.13;18.93;;;;;;;4.88;100.00;101441.47;4992346;28;20050;-83
2021/04/19 02:05:24;;;;;;;35.07;20.87;;;;;;;4.98;100.00;101436.38;4985219;28;20112;-82
2021/04/19 02:08:08;;;;;;;29.80;19.60;;;;;;;4.98;100.00;101433.75;4987417;28;20446;-82
2021/04/19 02:11:02;;;;;;;28.40;18.88;;;;;;;4.96;100.00;101435.47;4989540;28;20576;-82
2021/04/19 02:13:44;;;;;;;25.37;16.80;;;;;;;4.81;100.00;101440.47;4979127;28;20046;-82
2021/04/19 02:16:32;;;;;;;32.53;18.80;;;;;;;4.90;100.00;101447.59;4978798;28;20520;-82
2021/04/19 02:19:12;;;;;;;27.83;16.50;;;;;;;4.90;100.00;101445.84;4986975;28;20043;-83
2021/04/19 02:21:45;;;;;;;24.23;17.17;;;;;;;4.84;100.00;101453.59;5002188;28;20038;-83
2021/04/19 02:24:20;;;;;;;26.13;17.35;;;;;;;4.70;100.00;101450.75;4977233;28;20108;-82
2021/04/19 02:26:52;;;;;;;25.05;16.58;;;;;;;4.75;100.00;101449.13;4993609;28;20068;-83
2021/04/19 02:29:25;;;;;;;53.17;20.43;;;;;;;4.59;100.00;101454.06;4974931;28;20038;-82
2021/04/19 02:31:55;;;;;;;40.70;19.13;;;;;;;4.78;100.00;101453.50;4978901;28;20049;-82
2021/04/19 02:34:23;;;;;;;27.10;18.33;;;;;;;4.80;100.00;101443.97;4987333;28;20121;-82
2021/04/19 02:36:51;;;;;;;26.37;18.40;;;;;;;4.77;100.00;101446.50;4994892;28;20040;-83
2021/04/19 02:39:17;;;;;;;26.80;17.90;;;;;;;4.74;100.00;101449.09;4995264;28;20065;-82
2021/04/19 02:41:45;;;;;;;26.40;17.43;;;;;;;4.68;100.00;101451.59;4979336;28;20111;-82
2021/04/19 02:44:12;;;;;;;24.70;16.53;;;;;;;4.62;100.00;101451.50;4972722;28;20046;-82
2021/04/19 02:46:39;;;;;;;23.93;15.97;;;;;;;4.62;100.00;101455.00;4976754;28;20136;-82
2021/04/19 02:49:06;;;;;;;28.47;18.10;;;;;;;4.66;100.00;101450.72;4990678;28;20042;-83
2021/04/19 02:51:35;;;;;;;28.27;18.27;;;;;;;4.64;100.00;101448.06;4974671;28;20057;-84
2021/04/19 02:54:02;;;;;;;30.87;19.50;;;;;;;4.83;100.00;101440.50;4974821;28;20054;-82
2021/04/19 02:56:30;;;;;;;24.70;16.63;;;;;;;4.83;100.00;101445.75;4967090;28;20046;-82
2021/04/19 02:58:59;;;;;;;36.70;18.77;;;;;;;4.69;100.00;101445.50;4988821;28;20099;-82
2021/04/19 03:01:30;;;;;;;27.40;17.77;;;;;;;4.84;100.00;101451.00;4990391;28;20043;-82
2021/04/19 03:04:10;;;;;;;27.90;17.43;;;;;;;4.89;100.00;101437.97;4990402;28;20049;-83
2021/04/19 03:06:38;;;;;;;26.83;16.67;;;;;;;4.79;100.00;101443.09;4973455;28;20487;-83
2021/04/19 03:09:05;;;;;;;26.40;16.73;;;;;;;4.74;100.00;101439.50;4978740;28;20045;-82
2021/04/19 03:11:43;;;;;;;27.97;17.97;;;;;;;4.87;100.00;101430.06;5003367;28;20426;-83
2021/04/19 03:14:11;;;;;;;30.63;19.03;;;;;;;4.78;100.00;101443.91;4994248;28;20042;-82
2021/04/19 03:16:39;;;;;;;28.60;19.07;;;;;;;4.78;100.00;101437.78;4977977;28;20041;-83
2021/04/19 03:19:09;;;;;;;27.07;17.70;;;;;;;4.65;100.00;101438.47;4977753;28;20044;-83
2021/04/19 03:21:39;;;;;;;28.27;18.70;;;;;;;4.57;100.00;101445.31;4968902;28;20140;-82
2021/04/19 03:24:08;;;;;;;28.70;18.90;;;;;;;4.69;100.00;101440.28;4978960;28;20054;-83
2021/04/19 03:26:34;;;;;;;30.07;19.00;;;;;;;4.72;100.00;101429.88;4974654;28;20415;-83
2021/04/19 03:29:01;;;;;;;33.07;19.90;;;;;;;4.83;100.00;101436.16;4972027;28;20041;-83
2021/04/19 03:31:34;;;;;;;28.30;17.67;;;;;;;4.68;100.00;101431.53;4975871;28;20172;-82
2021/04/19 03:34:05;;;;;;;26.80;17.23;;;;;;;4.75;100.00;101429.91;5005478;28;20042;-82
2021/04/19 03:36:33;;;;;;;29.90;18.80;;;;;;;4.65;100.00;101428.00;4994203;28;20300;-82
2021/04/19 03:39:00;;;;;;;34.77;20.17;;;;;;;4.69;100.00;101422.84;4974931;28;20084;-82
2021/04/19 03:41:29;;;;;;;28.33;19.40;;;;;;;4.76;100.00;101426.44;4993917;28;20041;-82
2021/04/19 03:44:00;;;;;;;32.43;18.23;;;;;;;4.66;100.00;101428.03;4992583;28;20046;-82
2021/04/19 03:46:28;;;;;;;27.90;17.77;;;;;;;4.69;100.00;101428.06;4971456;28;20030;-82
2021/04/19 03:49:04;;;;;;;29.77;18.37;;;;;;;4.60;100.00;101427.03;4992304;28;20050;-82
2021/04/19 03:51:32;;;;;;;28.00;18.63;;;;;;;4.63;100.00;101416.66;4984667;28;20042;-83
2021/04/19 03:54:00;;;;;;;27.90;18.63;;;;;;;4.62;100.00;101418.34;4978054;28;20108;-83
2021/04/19 03:56:28;;;;;;;28.30;17.50;;;;;;;4.62;100.00;101415.72;4980450;28;20173;-82
2021/04/19 03:58:56;;;;;;;27.03;17.60;;;;;;;4.57;100.00;101414.81;4978160;28;20477;-83
2021/04/19 04:01:22;;;;;;;28.50;17.60;;;;;;;4.59;100.00;101412.19;4993175;28;20065;-82
2021/04/19 04:03:50;;;;;;;29.33;18.30;;;;;;;4.57;100.00;101419.16;4993379;28;20046;-83
2021/04/19 04:06:17;;;;;;;30.20;18.33;;;;;;;4.55;100.00;101421.75;4977601;28;20096;-84
2021/04/19 04:08:44;;;;;;;32.27;19.90;;;;;;;4.63;100.00;101427.13;4975007;28;20042;-82
2021/04/19 04:11:11;;;;;;;30.77;19.37;;;;;;;4.72;100.00;101430.75;4992933;28;20050;-84
2021/04/19 04:13:37;;;;;;;30.20;17.63;;;;;;;4.76;100.00;101431.66;4974920;28;20108;-82
2021/04/19 04:16:03;;;;;;;27.67;17.30;;;;;;;4.79;100.00;101430.00;4978932;28;20049;-80
2021/04/19 04:18:30;;;;;;;27.17;18.27;;;;;;;4.84;100.00;101432.66;4993378;28;20057;-83
2021/04/19 04:20:56;;;;;;;33.40;18.60;;;;;;;4.74;100.00;101436.88;4977750;28;20046;-85
2021/04/19 04:23:22;;;;;;;31.23;19.17;;;;;;;4.74;100.00;101436.88;4976862;28;20049;-84
2021/04/19 04:25:49;;;;;;;27.23;16.90;;;;;;;4.73;100.00;101436.88;4971319;28;20042;-83
2021/04/19 04:28:16;;;;;;;28.47;17.90;;;;;;;4.70;100.00;101442.03;4974169;28;20046;-81
2021/04/19 04:30:42;;;;;;;33.00;19.03;;;;;;;4.73;100.00;101442.97;4991602;28;20046;-82
2021/04/19 04:33:09;;;;;;;35.20;19.23;;;;;;;4.72;100.00;101438.59;5005484;28;20518;-85
2021/04/19 04:35:36;;;;;;;33.83;20.77;;;;;;;4.89;100.00;101446.72;4984827;28;20725;-84
2021/04/19 04:38:03;;;;;;;33.23;18.80;;;;;;;4.83;100.00;101436.16;4973757;28;20046;-82
2021/04/19 04:40:30;;;;;;;30.07;17.67;;;;;;;4.83;100.00;101435.25;4973757;28;20054;-84
2021/04/19 04:43:07;;;;;;;39.80;21.03;;;;;;;4.75;100.00;101443.88;4965945;28;20416;-85
2021/04/19 04:45:34;;;;;;;31.03;18.80;;;;;;;4.79;100.00;101442.16;4975847;28;20087;-85
2021/04/19 04:48:08;;;;;;;33.77;19.90;;;;;;;4.84;100.00;101440.53;4976892;28;20553;-84
2021/04/19 04:50:56;;;;;;;31.85;19.17;;;;;;;4.85;100.00;101447.50;4976829;28;20049;-81
2021/04/19 04:53:33;;;;;;;30.87;19.00;;;;;;;4.83;100.00;101437.88;4976540;28;20049;-82
2021/04/19 04:56:00;;;;;;;36.20;21.23;;;;;;;4.86;100.00;101441.41;4990593;28;20042;-84
2021/04/19 04:58:27;;;;;;;32.60;20.07;;;;;;;4.90;100.00;101445.84;4974537;28;20050;-84
2021/04/19 05:00:53;;;;;;;34.73;21.70;;;;;;;4.89;100.00;101445.84;4971472;28;20053;-84
2021/04/19 05:03:20;;;;;;;33.50;19.57;;;;;;;4.97;100.00;101454.69;5005715;28;20041;-84
2021/04/19 05:05:47;;;;;;;37.33;21.37;;;;;;;5.00;100.00;101450.38;4987384;28;20133;-84
2021/04/19 05:08:14;;;;;;;33.20;19.43;;;;;;;5.04;100.00;101449.56;4977379;28;20054;-83
2021/04/19 05:10:41;;;;;;;36.13;20.30;;;;;;;5.06;100.00;101453.09;4987020;28;20038;-83
2021/04/19 05:13:12;;;;;;;35.00;19.90;;;;;;;5.09;100.00;101452.25;4981824;28;20057;-81
2021/04/19 05:15:43;;;;;;;39.47;21.23;;;;;;;5.14;100.00;101447.09;4965831;28;20081;-83
2021/04/19 05:18:17;;;;;;;38.77;20.90;;;;;;;5.09;100.00;101452.25;4985697;28;20096;-82
2021/04/19 05:20:45;;;;;;;38.57;20.90;;;;;;;5.18;100.00;101447.13;4978847;28;20042;-85
2021/04/19 05:23:12;;;;;;;36.83;21.90;;;;;;;5.28;100.00;101449.00;4993903;28;20042;-84
2021/04/19 05:25:43;;;;;;;41.00;21.53;;;;;;;5.33;100.00;101455.22;4974920;28;20049;-83
2021/04/19 05:28:09;;;;;;;39.40;20.63;;;;;;;5.36;100.00;101449.13;4978020;28;20791;-83
2021/04/19 05:30:36;;;;;;;41.07;23.90;;;;;;;5.44;100.00;101452.72;4971601;28;20046;-82
2021/04/19 05:33:03;;;;;;;36.77;20.53;;;;;;;5.41;100.00;101455.31;4984603;28;20070;-85
2021/04/19 05:35:33;;;;;;;38.13;20.73;;;;;;;5.45;100.00;101451.84;4979705;28;20069;-85
2021/04/19 05:38:00;;;;;;;39.60;21.57;;;;;;;5.74;100.00;101448.75;4973656;28;20053;-84
2021/04/19 05:40:29;;;;;;;42.43;21.50;;;;;;;5.68;100.00;101443.41;4971844;28;20442;-85
2021/04/19 05:42:56;;;;;;;42.73;23.40;;;;;;;5.88;100.00;101450.63;4976789;28;20139;-84
2021/04/19 05:45:22;;;;;;;45.13;23.43;;;;;;;5.81;100.00;101448.84;4976420;28;20043;-84
2021/04/19 05:47:50;;;;;;;42.10;22.27;;;;;;;5.81;100.00;101453.19;4983408;28;20454;-84
2021/04/19 05:50:21;;;;;;;37.90;20.37;;;;;;;5.83;100.00;101454.97;5014833;28;20038;-83
2021/04/19 05:52:49;;;;;;;41.07;22.53;;;;;;;5.79;100.00;101455.78;4985395;28;20046;-85
2021/04/19 05:55:16;;;;;;;48.70;24.43;;;;;;;5.87;100.00;101458.50;4981601;28;20049;-85
2021/04/19 05:57:52;;;;;;;41.83;23.73;;;;;;;5.91;100.00;101453.34;4999616;28;20049;-85
2021/04/19 06:00:33;;;;;;;41.70;24.17;;;;;;;5.97;100.00;101460.41;4980681;28;20068;-86
2021/04/19 06:03:04;;;;;;;43.07;23.97;;;;;;;6.01;100.00;101456.94;4984314;28;20045;-83
2021/04/19 06:05:50;;;;;;;48.20;24.57;;;;;;;6.10;100.00;101450.91;4998253;28;20044;-85
2021/04/19 06:08:35;;;;;;;49.73;25.37;;;;;;;6.09;100.00;101457.91;4994494;28;20042;-85
2021/04/19 06:11:14;;;;;;;46.90;23.20;;;;;;;6.11;100.00;101448.31;4982046;28;20061;-84
2021/04/19 06:13:43;;;;;;;48.90;24.87;;;;;;;6.11;100.00;101448.31;4982786;28;20046;-84
2021/04/19 06:16:10;;;;;;;47.87;24.33;;;;;;;6.24;100.00;101448.44;4990190;28;20046;-85
2021/04/19 06:18:39;;;;;;;45.83;24.73;;;;;;;6.36;100.00;101448.53;4989031;28;20053;-85
2021/04/19 06:21:07;;;;;;;45.47;24.77;;;;;;;6.43;100.00;101450.38;4986179;28;20534;-85
2021/04/19 06:23:34;;;;;;;51.90;26.57;;;;;;;6.50;100.00;101441.69;4998229;28;20647;-85
2021/04/19 06:26:00;;;;;;;46.60;25.03;;;;;;;6.55;100.00;101437.34;4982302;28;20077;-85
2021/04/19 06:28:27;;;;;;;45.47;24.07;;;;;;;6.70;100.00;101441.84;4992327;28;20093;-86
2021/04/19 06:31:15;;;;;;;47.17;25.93;;;;;;;6.87;100.00;101448.09;4994095;28;20116;-82
2021/04/19 06:34:06;;;;;;;46.00;25.23;;;;;;;6.74;100.00;101441.00;5009022;28;20038;-85
2021/04/19 06:36:34;;;;;;;42.77;24.70;;;;;;;6.80;100.00;101445.41;5007005;28;20038;-85
2021/04/19 06:39:00;;;;;;;45.87;24.53;;;;;;;7.04;100.00;101445.59;4973007;28;20041;-85
2021/04/19 06:41:27;;;;;;;44.30;23.53;;;;;;;7.07;100.00;101442.13;4997230;28;20061;-85
2021/04/19 06:43:55;;;;;;;44.73;23.73;;;;;;;7.28;100.00;101436.97;4980283;28;20057;-84
2021/04/19 06:46:22;;;;;;;41.03;23.90;;;;;;;7.41;100.00;101432.69;4976603;28;20092;-85
2021/04/19 06:48:50;;;;;;;40.10;23.33;;;;;;;7.54;100.00;101434.47;4996392;28;20466;-84
2021/04/19 06:51:17;;;;;;;40.43;23.17;;;;;;;7.75;100.00;101437.19;4971767;28;20101;-83
2021/04/19 06:53:43;;;;;;;41.35;21.65;;;;;;;7.78;100.00;101438.94;4983163;28;20037;-85
2021/04/19 06:56:11;;;;;;;39.60;21.55;;;;;;;7.87;100.00;101445.13;4979517;28;20073;-84
2021/04/19 06:58:38;;;;;;;33.30;19.13;;;;;;;7.98;100.00;101444.25;4985818;28;20109;-83
2021/04/19 07:01:06;;;;;;;44.10;23.08;;;;;;;8.08;100.00;101443.44;4979617;28;20046;-82
2021/04/19 07:03:37;;;;;;;33.63;20.42;;;;;;;8.02;100.00;101452.19;4980173;28;20045;-82
2021/04/19 07:06:04;;;;;;;42.55;22.90;;;;;;;7.86;100.00;101448.63;4981302;28;20350;-83
2021/04/19 07:08:37;;;;;;;37.88;21.65;;;;;;;7.97;100.00;101445.13;4996143;28;20559;-83
2021/04/19 07:11:05;;;;;;;39.42;21.50;;;;;;;8.17;100.00;101446.09;4997011;28;20058;-83
2021/04/19 07:13:36;;;;;;;37.85;21.10;;;;;;;8.22;100.00;101440.81;4981985;28;20046;-84
2021/04/19 07:16:02;;;;;;;40.05;20.98;;;;;;;8.27;100.00;101445.22;4980353;28;20757;-83
2021/04/19 07:18:29;;;;;;;34.30;21.17;;;;;;;8.35;100.00;101434.72;4978208;28;20216;-82
2021/04/19 07:20:55;;;;;;;35.47;22.25;;;;;;;8.39;100.00;101432.09;4991211;28;20049;-83
2021/04/19 07:23:22;;;;;;;37.17;20.75;;;;;;;8.55;100.00;101435.59;4978340;28;20084;-84
2021/04/19 07:25:48;;;;;;;37.75;22.42;;;;;;;8.67;100.00;101430.34;4986342;23;20054;-81
2021/04/19 07:28:14;;;;;;;32.75;20.15;;;;;;;8.53;100.00;101429.47;4969242;28;20049;-81
2021/04/19 07:30:42;;;;;;;36.17;19.92;;;;;;;8.78;100.00;101422.44;4974016;28;20048;-85
2021/04/19 07:33:23;;;;;;;37.83;20.30;;;;;;;8.76;100.00;101423.34;4994133;28;20038;-83
2021/04/19 07:35:50;;;;;;;36.72;20.95;;;;;;;8.69;100.00;101427.72;4983419;28;20584;-83
2021/04/19 07:38:37;;;;;;;40.20;22.10;;;;;;;8.59;100.00;101426.84;4978760;28;20098;-84
2021/04/19 07:41:04;;;;;;;34.83;20.73;;;;;;;8.76;100.00;101425.97;4970257;28;20046;-84
2021/04/19 07:43:36;;;;;;;37.90;22.70;;;;;;;9.05;100.00;101425.91;4987115;28;20503;-84
2021/04/19 07:46:08;;;;;;;31.80;21.08;;;;;;;9.19;100.00;101418.84;4959217;28;20503;-84
2021/04/19 07:48:37;;;;;;;31.92;21.30;;;;;;;9.41;100.00;101415.25;4975120;28;20061;-84
2021/04/19 07:51:29;;;;;;;31.52;19.75;;;;;;;9.51;100.00;101413.47;4973089;28;20047;-84
2021/04/19 07:54:10;;;;;;;32.33;19.77;;;;;;;9.73;100.00;101412.47;4987971;28;20146;-85
2021/04/19 07:56:43;;;;;;;29.77;18.48;;;;;;;9.93;100.00;101401.84;4989914;28;20050;-85
2021/04/19 07:59:31;;;;;;;28.45;18.77;;;;;;;9.94;100.00;101411.50;4989758;28;20042;-83
2021/04/19 08:02:12;;;;;;;26.80;17.00;;;;;;;9.77;100.00;101405.44;4964949;28;20077;-84
2021/04/19 08:04:46;;;;;;;26.13;17.17;;;;;;;9.84;100.00;101409.81;4992758;28;20407;-84
2021/04/19 08:07:16;;;;;;;;;;;;;;;9.77;100.00;101413.34;4993203;28;20048;-84
2021/04/19 08:09:56;;;;;;;26.02;16.42;;;;;;;9.96;100.00;101411.50;4994886;28;19922;-84
2021/04/19 08:12:41;;;;;;;24.30;17.05;;;;;;;10.24;99.86;101404.28;4968936;28;20043;-83
2021/04/19 08:15:18;;;;;;;28.40;16.27;;;;;;;10.36;97.40;101398.94;4966359;28;20066;-85
2021/04/19 08:17:45;;;;;;;26.17;17.75;;;;;;;10.39;100.00;101394.47;4965452;28;20426;-85
2021/04/19 08:20:22;;;;;;;25.98;17.08;;;;;;;10.48;100.00;101397.94;4983020;28;20347;-84
2021/04/19 08:22:48;;;;;;;27.00;17.33;;;;;;;10.32;96.08;101392.78;4966243;28;20114;-83
2021/04/19 08:25:21;;;;;;;25.63;16.48;;;;;;;10.55;95.93;101392.59;4996162;28;20039;-83
2021/04/19 08:28:09;;;;;;;23.75;15.68;;;;;;;10.46;96.57;101384.75;4959154;28;20053;-83
2021/04/19 08:30:36;;;;;;;25.88;17.67;;;;;;;10.79;99.88;101382.69;4962799;28;20058;-84
2021/04/19 08:33:04;;;;;;;24.45;15.57;;;;;;;10.85;98.05;101382.66;4959651;28;20155;-83
2021/04/19 08:35:30;;;;;;;24.95;15.52;;;;;;;10.84;96.75;101381.75;4966387;28;20047;-84
2021/04/19 08:37:59;;;;;;;25.67;16.65;;;;;;;11.15;94.42;101387.59;5003071;28;20035;-85
2021/04/19 08:40:28;;;;;;;25.63;15.70;;;;;;;10.92;94.16;101382.53;4973175;28;20054;-84
2021/04/19 08:42:55;;;;;;;22.27;14.85;;;;;;;11.29;94.72;101384.78;4983986;28;20035;-85
2021/04/19 08:45:23;;;;;;;24.77;15.18;;;;;;;11.57;94.77;101378.25;4995905;28;20503;-84
2021/04/19 08:47:51;;;;;;;19.50;14.02;;;;;;;11.75;93.59;101382.41;4969057;28;20402;-84
2021/04/19 08:50:22;;;;;;;26.05;15.43;;;;;;;12.00;96.04;101384.75;4979541;28;20077;-82
2021/04/19 08:52:48;;;;;;;21.95;14.95;;;;;;;12.27;93.60;101383.44;4965937;28;20058;-84
2021/04/19 08:55:15;;;;;;;22.75;14.18;;;;;;;12.35;92.34;101384.19;4966716;28;20050;-85
2021/04/19 08:57:45;;;;;;;18.05;13.18;;;;;;;12.23;83.60;101382.63;4978275;28;20045;-82
2021/04/19 09:00:16;;;;;;;18.58;12.68;;;;;;;12.31;86.84;101374.56;4970745;28;20126;-84
2021/04/19 09:02:43;;;;;;;22.95;14.13;;;;;;;12.48;87.64;101383.13;4974573;28;20125;-85
2021/04/19 09:05:16;;;;;;;16.48;12.10;;;;;;;12.38;87.77;101382.41;4966409;28;20696;-84
2021/04/19 09:07:45;;;;;;;17.63;12.20;;;;;;;12.49;89.46;101381.34;4978475;28;20484;-84
2021/04/19 09:10:14;;;;;;;19.60;12.20;;;;;;;12.48;83.81;101376.94;4959802;28;20047;-83
2021/04/19 09:12:44;;;;;;;17.45;12.10;;;;;;;12.65;87.96;101375.75;4977128;28;20066;-83
2021/04/19 09:15:29;;;;;;;18.02;12.38;;;;;;;12.45;86.17;101369.06;4969383;28;20054;-83
2021/04/19 09:18:06;;;;;;;21.15;12.70;;;;;;;12.78;86.66;101371.13;4952802;28;20034;-83
2021/04/19 09:20:47;;;;;;;19.38;12.00;;;;;;;12.17;83.68;101364.19;4972260;28;20051;-84
2021/04/19 09:23:21;;;;;;;16.65;12.25;;;;;;;12.05;86.10;101367.03;4959009;28;20069;-83
2021/04/19 09:25:47;;;;;;;16.73;12.38;;;;;;;12.73;88.69;101362.34;4973189;28;20435;-83
2021/04/19 09:28:13;;;;;;;14.15;10.18;;;;;;;13.08;84.53;101356.38;4979385;28;20045;-83
2021/04/19 09:30:46;;;;;;;14.07;10.55;;;;;;;13.36;81.89;101353.19;4985787;28;20539;-83
2021/04/19 09:33:18;;;;;;;12.98;10.27;;;;;;;13.62;79.37;101352.63;4993363;28;20101;-84
2021/04/19 09:35:46;;;;;;;13.93;10.40;;;;;;;13.80;79.17;101354.91;4978247;28;20535;-83
2021/04/19 09:38:15;;;;;;;14.55;10.02;;;;;;;13.65;80.27;101353.47;4954434;28;20047;-84
2021/04/19 09:40:48;;;;;;;14.52;10.00;;;;;;;13.96;79.04;101339.50;4983736;28;20054;-83
2021/04/19 09:43:36;;;;;;;12.02;9.50;;;;;;;14.26;78.53;101335.19;4975003;28;20735;-86
2021/04/19 09:46:09;;;;;;;11.05;8.68;;;;;;;14.11;73.06;101338.22;4999109;28;20073;-84
2021/04/19 09:49:03;;;;;;;12.98;8.93;;;;;;;14.07;73.24;101343.63;4974480;28;20049;-85
2021/04/19 09:51:37;;;;;;;10.80;8.07;;;;;;;14.25;77.11;101336.13;4987513;28;20133;-84
2021/04/19 09:54:08;;;;;;;11.57;8.68;;;;;;;14.44;71.75;101331.19;4988951;28;20061;-85
2021/04/19 09:56:47;;;;;;;11.32;8.25;;;;;;;14.48;68.53;101339.09;4968603;28;20043;-85
2021/04/19 09:59:18;;;;;;;10.35;7.75;;;;;;;14.56;74.63;101336.25;4989106;28;20062;-84
2021/04/19 10:01:46;;;;;;;8.32;7.07;;;;;;;14.85;67.23;101343.44;4945052;28;20047;-85
2021/04/19 10:04:12;;;;;;;8.95;6.55;;;;;;;14.84;66.03;101344.34;4990049;28;20097;-85
2021/04/19 10:06:43;;;;;;;10.95;7.80;;;;;;;14.87;69.38;101339.81;4966399;28;20049;-85
2021/04/19 10:09:15;;;;;;;8.38;6.95;;;;;;;14.80;66.88;101332.94;4967134;28;20043;-84
2021/04/19 10:11:43;;;;;;;9.80;7.45;;;;;;;14.74;64.46;101334.88;4957399;28;20050;-83
2021/04/19 10:14:14;;;;;;;11.02;7.07;;;;;;;14.92;66.26;101339.69;4964437;28;20062;-85
2021/04/19 10:16:43;;;;;;;11.05;7.80;;;;;;;15.03;64.14;101337.59;4987019;28;20057;-83
2021/04/19 10:19:09;;;;;;;8.40;6.57;;;;;;;15.17;63.17;101326.56;4992893;28;20042;-83
2021/04/19 10:21:38;;;;;;;8.77;6.65;;;;;;;15.11;65.60;101322.28;4995434;28;20038;-84
2021/04/19 10:24:13;;;;;;;9.73;6.68;;;;;;;15.14;62.31;101314.25;4961753;28;20048;-82
2021/04/19 10:26:40;;;;;;;9.98;6.70;;;;;;;14.76;60.81;101312.63;4990665;28;20166;-83
2021/04/19 10:29:15;;;;;;;8.15;5.82;;;;;;;15.20;65.38;101307.84;4979792;28;20420;-82
2021/04/19 10:31:55;;;;;;;8.13;6.28;;;;;;;15.55;63.82;101297.91;4957011;28;20050;-83
2021/04/19 10:34:26;;;;;;;10.18;6.35;;;;;;;15.83;62.76;101295.31;4991515;28;20125;-85
2021/04/19 10:36:55;;;;;;;8.57;5.57;;;;;;;16.08;58.82;101293.59;4962789;28;20042;-84
2021/04/19 10:39:24;;;;;;;9.02;5.78;;;;;;;16.13;57.29;101296.97;4987603;28;20050;-84
2021/04/19 10:41:53;;;;;;;6.70;5.82;;;;;;;16.32;59.18;101291.91;4961980;28;20539;-83
2021/04/19 10:44:31;;;;;;;9.65;6.13;;;;;;;16.56;59.48;101287.47;4958394;28;20396;-84
2021/04/19 10:46:58;;;;;;;9.05;6.13;;;;;;;16.44;58.36;101283.47;4962888;28;20053;-82
2021/04/19 10:49:26;;;;;;;8.13;5.50;;;;;;;16.73;56.16;101281.59;4961616;28;20081;-82
2021/04/19 10:51:55;;;;;;;9.65;6.75;;;;;;;16.65;56.11;101279.19;4969085;28;20050;-83
2021/04/19 10:54:38;;;;;;;8.20;5.97;;;;;;;16.77;55.32;101292.09;4976554;28;20048;-83
2021/04/19 10:57:06;;;;;;;9.43;6.95;;;;;;;16.34;57.75;101284.72;4956763;28;20035;-83
2021/04/19 10:59:32;;;;;;;9.90;5.65;;;;;;;16.71;59.79;101284.31;4964995;28;20039;-85
2021/04/19 11:02:08;;;;;;;9.45;6.00;;;;;;;16.83;54.05;101283.88;4967663;28;20093;-84
2021/04/19 11:04:37;;;;;;;9.07;5.00;;;;;;;16.96;55.95;101286.97;4968588;28;20133;-83
2021/04/19 11:07:31;;;;;;;11.57;6.35;;;;;;;16.95;55.92;101277.22;4981862;28;20046;-83
2021/04/19 11:10:17;;;;;;;6.68;5.55;;;;;;;16.79;54.45;101282.25;4952098;28;20426;-82
2021/04/19 11:12:56;;;;;;;9.50;5.53;;;;;;;16.56;55.19;101263.47;4965436;28;20041;-82
2021/04/19 11:15:37;;;;;;;6.88;5.28;;;;;;;16.70;55.83;101276.38;4986133;28;20049;-83
2021/04/19 11:18:17;;;;;;;9.02;5.60;;;;;;;17.01;55.93;101263.66;4986135;28;20039;-83
2021/04/19 11:20:45;;;;;;;9.60;5.50;;;;;;;17.28;55.94;101268.88;4956052;28;20046;-82
2021/04/19 11:23:29;;;;;;;12.05;7.03;;;;;;;17.29;53.06;101267.94;4953707;28;20993;-83
2021/04/19 11:25:58;;;;;;;8.25;5.82;;;;;;;17.28;54.00;101275.06;4976799;28;20138;-83
2021/04/19 11:28:42;;;;;;;8.68;5.05;;;;;;;17.59;55.40;101269.41;4987697;28;20102;-83